Time;durP1;ratioP1;P1;durP2;ratioP2;P2;SDS_P1;SDS_P2;PMS_P1;PMS_P2;Temp;Humidity;BMP_temperature;BMP_pressure;BME280_temperature;BME280_humidity;BME280_pressure;Samples;Min_cycle;Max_cycle;Signal;HPM_P1;HPM_P2
2023/07/04 00:01:56;;;;;;;3.35;1.67;;;;;;;14.72;100.00;97914.03;15273039;19;20487;-43
2023/07/04 00:07:24;;;;;;;2.63;1.40;;;;;;;14.67;100.00;97913.78;15270677;19;20025;-45
2023/07/04 00:12:49;;;;;;;3.38;1.63;;;;;;;14.58;100.00;97912.22;15272271;19;20015;-46
2023/07/04 00:18:14;;;;;;;2.80;1.50;;;;;;;14.48;100.00;97908.00;15270947;19;20025;-46
2023/07/04 00:23:45;;;;;;;4.00;1.65;;;;;;;14.37;100.00;97899.59;15271653;19;20006;-48
2023/07/04 00:29:10;;;;;;;2.70;1.48;;;;;;;14.26;100.00;97893.69;15275891;19;20031;-44
2023/07/04 00:34:34;;;;;;;3.60;1.35;;;;;;;14.12;100.00;97914.44;15270544;19;20028;-44
2023/07/04 00:40:12;;;;;;;1.27;1.05;;;;;;;14.10;100.00;97913.78;15268034;19;20035;-46
2023/07/04 00:45:43;;;;;;;2.05;1.30;;;;;;;14.12;100.00;97919.00;15269278;19;20082;-45
2023/07/04 00:51:21;;;;;;;2.05;1.30;;;;;;;14.10;100.00;97924.63;15269651;19;20021;-43
2023/07/04 00:56:49;;;;;;;3.38;1.40;;;;;;;14.10;100.00;97921.91;15268586;19;20086;-47
2023/07/04 01:02:27;;;;;;;2.95;1.40;;;;;;;14.08;100.00;97923.97;15268887;19;20550;-43
2023/07/04 01:07:59;;;;;;;2.38;1.45;;;;;;;14.02;100.00;97924.78;15282695;19;20021;-44
2023/07/04 01:13:46;;;;;;;2.92;1.35;;;;;;;14.03;100.00;97921.03;15282402;19;20014;-46
2023/07/04 01:19:12;;;;;;;2.33;1.30;;;;;;;14.00;100.00;97921.44;15281283;19;20014;-46
2023/07/04 01:24:50;;;;;;;3.22;1.38;;;;;;;13.96;100.00;97930.97;15285523;19;20018;-48
2023/07/04 01:30:20;;;;;;;1.95;1.40;;;;;;;13.95;100.00;97923.88;15286086;19;20038;-44
2023/07/04 01:35:46;;;;;;;1.50;1.17;;;;;;;13.93;100.00;97928.66;15286660;19;20031;-47
2023/07/04 01:41:18;;;;;;;2.38;1.20;;;;;;;13.94;100.00;97946.56;15287379;19;20070;-43
2023/07/04 01:46:47;;;;;;;2.90;1.33;;;;;;;13.85;100.00;97943.16;15282313;19;20007;-45
2023/07/04 01:52:12;;;;;;;2.40;1.40;;;;;;;13.66;100.00;97958.19;15285962;19;20014;-43
2023/07/04 01:57:38;;;;;;;2.25;1.30;;;;;;;13.61;100.00;97949.78;15277456;19;20047;-42
2023/07/04 02:03:06;;;;;;;5.00;1.35;;;;;;;13.66;100.00;97948.19;15277933;19;20018;-49
2023/07/04 02:08:31;;;;;;;2.42;1.58;;;;;;;13.79;100.00;97955.63;15271635;19;21755;-45
2023/07/04 02:13:56;;;;;;;2.75;1.55;;;;;;;13.79;100.00;97963.75;15279389;19;20454;-50
2023/07/04 02:19:24;;;;;;;2.08;1.30;;;;;;;13.97;100.00;97966.00;15271174;19;20006;-44
2023/07/04 02:24:48;;;;;;;2.03;1.08;;;;;;;14.12;100.00;97957.78;15274863;19;20021;-45
2023/07/04 02:30:15;;;;;;;2.70;1.30;;;;;;;14.27;100.00;97959.56;15281722;19;20015;-46
2023/07/04 02:35:42;;;;;;;2.75;1.27;;;;;;;14.33;100.00;97967.75;15277131;19;20015;-46
2023/07/04 02:41:13;;;;;;;1.40;1.13;;;;;;;14.32;100.00;97976.91;15277912;19;20074;-42
2023/07/04 02:46:38;;;;;;;2.13;1.10;;;;;;;14.35;100.00;97980.28;15273225;19;20014;-45
2023/07/04 02:52:05;;;;;;;3.05;1.20;;;;;;;14.40;100.00;97991.34;15275069;19;20014;-44
2023/07/04 02:57:30;;;;;;;1.85;1.20;;;;;;;14.38;100.00;97983.41;15273737;19;20089;-44
2023/07/04 03:02:55;;;;;;;1.90;1.30;;;;;;;14.31;100.00;97988.78;15271243;19;20801;-45
2023/07/04 03:08:23;;;;;;;1.73;1.17;;;;;;;14.27;100.00;97994.78;15276650;19;20017;-46
2023/07/04 03:13:48;;;;;;;1.90;1.30;;;;;;;14.17;100.00;97998.66;15281609;19;20022;-45
2023/07/04 03:19:13;;;;;;;1.88;1.20;;;;;;;14.12;100.00;98001.13;15276305;19;20014;-45
2023/07/04 03:24:42;;;;;;;1.50;1.23;;;;;;;14.09;100.00;98001.50;15274818;19;20019;-45
2023/07/04 03:30:11;;;;;;;2.65;1.30;;;;;;;14.08;100.00;98009.84;15278054;19;20011;-46
2023/07/04 03:35:39;;;;;;;2.50;1.35;;;;;;;14.03;100.00;98013.94;15274164;19;20010;-46
2023/07/04 03:41:20;;;;;;;2.08;1.15;;;;;;;14.01;100.00;98016.00;15275995;19;20429;-47
2023/07/04 03:46:44;;;;;;;1.67;1.25;;;;;;;14.01;100.00;98020.59;15275873;19;20014;-47
2023/07/04 03:52:09;;;;;;;2.45;1.10;;;;;;;14.03;100.00;98027.50;15276836;19;20333;-46
2023/07/04 03:57:37;;;;;;;2.25;1.40;;;;;;;14.06;100.00;98033.56;15271776;19;20031;-44
2023/07/04 04:03:03;;;;;;;2.30;1.30;;;;;;;14.09;100.00;98025.88;15275440;19;20007;-43
2023/07/04 04:08:28;;;;;;;2.83;1.40;;;;;;;14.18;100.00;98032.00;15276451;19;20022;-44
2023/07/04 04:13:56;;;;;;;2.40;1.20;;;;;;;14.23;100.00;98034.13;15277056;19;20014;-44
2023/07/04 04:19:20;;;;;;;3.08;1.70;;;;;;;14.25;100.00;98034.78;15274572;19;20034;-45
2023/07/04 04:24:46;;;;;;;3.90;1.63;;;;;;;14.29;100.00;98034.19;15273696;19;20129;-44
2023/07/04 04:30:14;;;;;;;3.05;1.20;;;;;;;14.33;100.00;98040.06;15273473;19;20135;-45
2023/07/04 04:35:41;;;;;;;2.28;1.42;;;;;;;14.39;100.00;98039.28;15274917;19;20010;-43
2023/07/04 04:41:12;;;;;;;1.98;1.25;;;;;;;14.44;100.00;98041.41;15272818;19;20018;-45
2023/07/04 04:46:40;;;;;;;1.98;1.30;;;;;;;14.48;100.00;98054.38;15271716;19;20090;-44
2023/07/04 04:52:04;;;;;;;2.45;1.23;;;;;;;14.55;100.00;98061.72;15274378;19;20078;-45
2023/07/04 04:57:30;;;;;;;1.65;1.30;;;;;;;14.63;100.00;98073.25;15271723;19;20034;-46
2023/07/04 05:02:58;;;;;;;4.18;1.45;;;;;;;14.73;100.00;98067.53;15272051;19;20018;-45
2023/07/04 05:08:24;;;;;;;3.88;1.52;;;;;;;14.91;100.00;98072.47;15270124;19;20364;-46
2023/07/04 05:13:50;;;;;;;2.83;1.50;;;;;;;15.12;100.00;98064.44;15270679;19;20423;-45
2023/07/04 05:19:18;;;;;;;2.65;1.48;;;;;;;15.36;100.00;98066.66;15270443;19;20329;-46
2023/07/04 05:24:42;;;;;;;2.97;1.50;;;;;;;15.56;100.00;98077.63;15270234;19;20010;-46
2023/07/04 05:30:09;;;;;;;3.60;1.60;;;;;;;15.76;100.00;98071.44;15269157;19;20641;-49
2023/07/04 05:35:36;;;;;;;3.60;1.70;;;;;;;15.94;100.00;98073.59;15270036;19;20017;-45
2023/07/04 05:41:01;;;;;;;3.03;1.58;;;;;;;16.09;100.00;98080.75;15269301;19;20014;-44
2023/07/04 05:46:26;;;;;;;3.10;1.60;;;;;;;16.21;100.00;98072.84;15268064;19;20019;-44
2023/07/04 05:51:55;;;;;;;7.60;1.65;;;;;;;16.32;100.00;98078.50;15272437;19;20010;-48
2023/07/04 05:57:19;;;;;;;3.10;1.60;;;;;;;16.44;100.00;98076.03;15277768;19;20018;-46
2023/07/04 06:02:44;;;;;;;3.20;1.70;;;;;;;16.57;100.00;98082.53;15272328;19;20029;-46
2023/07/04 06:08:11;;;;;;;2.85;1.75;;;;;;;16.66;100.00;98081.25;15267502;19;20031;-46
2023/07/04 06:13:36;;;;;;;3.33;1.60;;;;;;;16.75;100.00;98076.44;15271506;19;20014;-53
2023/07/04 06:19:00;;;;;;;2.80;1.73;;;;;;;16.87;100.00;98082.94;15277016;19;20033;-44
2023/07/04 06:24:29;;;;;;;3.83;1.65;;;;;;;16.98;100.00;98073.31;15281425;19;20018;-48
2023/07/04 06:29:55;;;;;;;2.38;1.48;;;;;;;17.10;100.00;98077.06;15282177;19;20014;-45
2023/07/04 06:35:20;;;;;;;2.65;1.52;;;;;;;17.26;100.00;98080.38;15270867;19;20018;-44
2023/07/04 06:41:02;;;;;;;2.95;1.63;;;;;;;17.38;100.00;98083.28;15273156;19;20023;-43
2023/07/04 06:46:27;;;;;;;3.50;1.73;;;;;;;17.47;100.00;98079.25;15274850;19;21283;-47
2023/07/04 06:51:52;;;;;;;5.15;1.85;;;;;;;17.49;100.00;98089.97;15274805;19;20040;-42
2023/07/04 06:57:20;;;;;;;3.60;1.60;;;;;;;17.61;100.00;98084.66;15270714;19;20021;-45
2023/07/04 07:02:45;;;;;;;3.65;1.60;;;;;;;17.82;100.00;98089.00;15271580;19;20042;-44
2023/07/04 07:08:14;;;;;;;4.05;1.80;;;;;;;17.94;100.00;98091.84;15267460;19;20018;-43
2023/07/04 07:13:41;;;;;;;3.38;1.65;;;;;;;18.16;100.00;98092.41;15273805;19;20011;-44
2023/07/04 07:19:06;;;;;;;8.13;1.55;;;;;;;18.16;100.00;98093.28;15271384;19;20499;-46
2023/07/04 07:24:33;;;;;;;4.43;1.60;;;;;;;18.36;100.00;98094.16;15274009;19;20039;-42
2023/07/04 07:30:01;;;;;;;2.35;1.35;;;;;;;18.51;100.00;98107.53;15269846;19;20022;-43
2023/07/04 07:35:26;;;;;;;3.00;1.65;;;;;;;18.61;100.00;98107.88;15263604;19;21042;-46
2023/07/04 07:40:55;;;;;;;3.92;1.60;;;;;;;18.66;100.00;98102.56;15263859;19;20026;-45
2023/07/04 07:46:25;;;;;;;3.13;1.60;;;;;;;18.78;100.00;98108.16;15269853;19;20023;-44
2023/07/04 07:51:50;;;;;;;2.92;1.40;;;;;;;18.88;100.00;98099.44;15273639;19;20866;-44
2023/07/04 07:57:14;;;;;;;2.90;1.55;;;;;;;18.93;100.00;98099.63;15269507;19;20042;-43
2023/07/04 08:02:42;;;;;;;2.90;1.67;;;;;;;19.16;100.00;98109.09;15270505;19;20029;-45
2023/07/04 08:08:13;;;;;;;4.78;1.60;;;;;;;19.06;100.00;98098.69;15268952;19;21077;-46
2023/07/04 08:13:38;;;;;;;3.63;1.60;;;;;;;19.13;95.66;98088.56;15265286;19;20021;-45
2023/07/04 08:19:06;;;;;;;2.83;1.60;;;;;;;19.24;97.51;98096.00;15267009;19;20018;-45
2023/07/04 08:24:31;;;;;;;2.33;1.50;;;;;;;19.50;96.28;98098.66;15271519;19;20018;-46
2023/07/04 08:29:56;;;;;;;2.03;1.40;;;;;;;19.56;94.89;98093.13;15266883;19;20011;-43
2023/07/04 08:35:24;;;;;;;3.78;1.50;;;;;;;19.66;90.87;98091.75;15267565;19;20022;-46
2023/07/04 08:40:51;;;;;;;4.07;1.70;;;;;;;19.79;93.05;98088.03;15265868;19;20038;-46
2023/07/04 08:46:21;;;;;;;3.17;1.50;;;;;;;20.04;84.19;98092.59;15262820;19;20010;-44
2023/07/04 08:51:54;;;;;;;3.08;1.60;;;;;;;20.15;79.63;98100.03;15269239;19;20017;-44
2023/07/04 08:57:33;;;;;;;2.35;1.63;;;;;;;20.16;80.10;98098.97;15262264;19;20019;-47
2023/07/04 09:03:12;;;;;;;2.80;1.50;;;;;;;20.33;81.89;98091.75;15266681;19;20594;-45
2023/07/04 09:09:01;;;;;;;4.88;1.95;;;;;;;20.59;80.53;98095.16;15265199;19;20016;-44
2023/07/04 09:14:34;;;;;;;3.25;1.90;;;;;;;20.51;81.23;98091.91;15265574;19;20010;-46
2023/07/04 09:20:01;;;;;;;3.95;2.00;;;;;;;20.70;81.99;98096.22;15260953;19;20326;-44
2023/07/04 09:25:28;;;;;;;5.78;2.00;;;;;;;20.72;85.15;98090.53;15266704;19;20038;-46
2023/07/04 09:30:56;;;;;;;2.88;1.75;;;;;;;20.91;78.94;98099.53;15279873;19;20031;-45
2023/07/04 09:36:23;;;;;;;3.92;2.50;;;;;;;21.29;77.15;98100.94;15278547;19;20807;-44
2023/07/04 09:41:59;;;;;;;6.10;2.20;;;;;;;21.28;71.78;98082.88;15275136;19;20427;-46
2023/07/04 09:47:43;;;;;;;2.90;2.00;;;;;;;21.51;73.27;98089.41;15277018;19;20460;-43
2023/07/04 09:53:11;;;;;;;3.75;2.10;;;;;;;21.43;66.12;98082.38;15278895;19;20586;-44
2023/07/04 09:58:38;;;;;;;4.03;2.30;;;;;;;21.57;66.82;98084.84;15273680;19;20013;-44
2023/07/04 10:04:09;;;;;;;4.00;2.22;;;;;;;21.73;66.44;98084.13;14766817;19;10001603;-44
2023/07/04 10:09:36;;;;;;;3.97;2.45;;;;;;;21.60;66.41;98078.91;15278430;19;20591;-50
2023/07/04 10:15:04;;;;;;;3.15;2.50;;;;;;;21.83;63.71;98078.03;15277117;19;20019;-48
2023/07/04 10:20:29;;;;;;;2.72;2.25;;;;;;;21.81;62.63;98080.16;15271459;19;20518;-44
2023/07/04 10:25:48;;;;;;;2.50;2.10;;;;;;;22.20;60.52;98080.38;15275420;19;20513;-44
2023/07/04 10:31:21;;;;;;;4.07;2.30;;;;;;;22.34;58.02;98075.41;15277759;19;20021;-43
2023/07/04 10:36:54;;;;;;;4.80;2.30;;;;;;;22.67;58.98;98073.81;15266014;19;20567;-43
2023/07/04 10:42:37;;;;;;;4.50;2.50;;;;;;;22.49;58.43;98077.63;15264716;19;20026;-45
2023/07/04 10:48:12;;;;;;;2.88;2.40;;;;;;;22.81;58.95;98065.25;15274862;19;20011;-44
2023/07/04 10:53:37;;;;;;;3.28;2.70;;;;;;;22.78;56.97;98064.66;15273947;19;20015;-44
2023/07/04 10:59:12;;;;;;;5.70;2.30;;;;;;;22.80;59.33;98071.81;15274202;19;20031;-45
2023/07/04 11:04:44;;;;;;;4.97;2.45;;;;;;;22.75;57.96;98070.69;15279166;19;20011;-45
2023/07/04 11:10:13;;;;;;;4.15;2.50;;;;;;;22.76;58.21;98071.50;15278837;19;20426;-45
2023/07/04 11:15:43;;;;;;;3.25;2.65;;;;;;;22.92;58.79;98069.81;15274180;19;20531;-44
2023/07/04 11:21:13;;;;;;;4.03;2.83;;;;;;;23.09;52.90;98067.91;15269800;19;20470;-44
2023/07/04 11:26:58;;;;;;;3.47;2.58;;;;;;;23.30;54.86;98061.88;15269380;19;20018;-45
2023/07/04 11:32:29;;;;;;;3.50;2.97;;;;;;;23.58;51.03;98071.06;15274559;19;20102;-47
2023/07/04 11:38:02;;;;;;;;;;;;;;;23.53;49.66;98063.59;15271374;19;20041;-44
2023/07/04 11:43:36;;;;;;;4.13;2.60;;;;;;;23.51;52.29;98054.75;15270231;19;19966;-44
2023/07/04 11:49:04;;;;;;;3.05;2.75;;;;;;;23.42;50.76;98059.88;15272418;19;20018;-43
2023/07/04 11:54:34;;;;;;;3.30;2.90;;;;;;;23.46;49.51;98043.72;15271325;19;20640;-44
2023/07/04 11:59:58;;;;;;;3.13;2.80;;;;;;;23.57;48.30;98053.75;15268741;19;20469;-44
2023/07/04 12:05:40;;;;;;;3.63;2.80;;;;;;;24.00;51.36;98052.09;15269680;19;20014;-46
2023/07/04 12:11:10;;;;;;;3.40;3.10;;;;;;;24.21;48.83;98052.31;15272092;19;20089;-44
2023/07/04 12:16:36;;;;;;;3.83;3.10;;;;;;;23.78;48.12;98059.50;15268983;19;20031;-45
2023/07/04 12:22:00;;;;;;;4.30;3.03;;;;;;;23.86;46.81;98053.53;15268460;19;20015;-44
2023/07/04 12:27:28;;;;;;;3.65;2.85;;;;;;;23.75;47.71;98038.00;15269870;19;20351;-45
2023/07/04 12:32:53;;;;;;;4.85;3.08;;;;;;;23.45;46.50;98051.13;15265632;19;20025;-46
2023/07/04 12:38:22;;;;;;;4.82;3.10;;;;;;;23.51;48.57;98061.09;15267983;19;20032;-44
2023/07/04 12:43:53;;;;;;;3.97;2.90;;;;;;;24.03;47.65;98063.69;15266411;19;20034;-45
2023/07/04 12:49:22;;;;;;;3.90;2.70;;;;;;;24.41;48.35;98067.34;15272109;19;20021;-45
2023/07/04 12:54:48;;;;;;;3.25;2.45;;;;;;;24.40;47.19;98054.69;15267292;19;20021;-44
2023/07/04 13:00:24;;;;;;;6.35;3.00;;;;;;;24.43;45.40;98052.25;15267722;19;20340;-45
2023/07/04 13:05:52;;;;;;;5.00;3.00;;;;;;;24.18;45.96;98065.75;15263438;19;20017;-45
2023/07/04 13:11:18;;;;;;;4.68;3.10;;;;;;;24.04;46.07;98057.91;15269042;19;20622;-46
2023/07/04 13:16:45;;;;;;;3.20;2.90;;;;;;;24.42;44.76;98058.00;15266187;19;20033;-44
2023/07/04 13:22:22;;;;;;;5.25;3.00;;;;;;;24.27;45.45;98056.78;15264762;19;20043;-45
2023/07/04 13:28:11;;;;;;;3.72;3.13;;;;;;;24.39;46.11;98064.06;15266008;19;20023;-52
2023/07/04 13:33:44;;;;;;;3.67;3.15;;;;;;;24.05;44.91;98064.25;15263543;19;20014;-44
2023/07/04 13:39:09;;;;;;;3.42;3.13;;;;;;;24.21;47.68;98062.50;15268306;19;20027;-44
2023/07/04 13:44:37;;;;;;;4.53;3.10;;;;;;;24.64;45.72;98054.38;15261741;19;20490;-44
2023/07/04 13:50:14;;;;;;;3.80;3.33;;;;;;;25.06;45.33;98054.41;15265729;19;20013;-47
2023/07/04 13:55:39;;;;;;;4.55;2.80;;;;;;;25.32;45.04;98067.56;15260360;19;20450;-48
2023/07/04 14:01:03;;;;;;;5.25;3.10;;;;;;;25.40;44.55;98053.25;15260885;19;20757;-45
2023/07/04 14:06:51;;;;;;;4.68;2.97;;;;;;;25.77;45.44;98055.13;15260643;19;20486;-46
2023/07/04 14:12:16;;;;;;;3.15;2.80;;;;;;;25.91;45.35;98060.13;15269101;19;20010;-45
2023/07/04 14:17:41;;;;;;;5.25;3.00;;;;;;;25.75;43.04;98062.00;15276564;19;20019;-50
2023/07/04 14:23:11;;;;;;;3.25;2.83;;;;;;;25.98;41.77;98052.41;15272020;19;20014;-48
2023/07/04 14:28:36;;;;;;;3.40;2.90;;;;;;;25.79;42.67;98041.03;15276130;19;20077;-45
2023/07/04 14:34:01;;;;;;;3.70;2.88;;;;;;;25.97;42.60;98043.31;15277321;19;20022;-47
2023/07/04 14:39:29;;;;;;;3.53;3.08;;;;;;;25.99;43.48;98045.78;15276715;19;20097;-47
2023/07/04 14:45:01;;;;;;;3.83;2.80;;;;;;;26.01;41.50;98062.94;15273448;19;20598;-45
2023/07/04 14:50:27;;;;;;;3.97;2.88;;;;;;;25.92;41.31;98050.75;15278178;19;20022;-46
2023/07/04 14:56:05;;;;;;;3.95;2.90;;;;;;;26.20;42.99;98045.88;15274619;19;20014;-45
2023/07/04 15:01:30;;;;;;;5.25;2.92;;;;;;;26.05;41.04;98032.84;15269565;19;20022;-45
2023/07/04 15:06:59;;;;;;;3.17;2.80;;;;;;;25.60;42.36;98051.72;15275491;19;20018;-46
2023/07/04 15:12:28;;;;;;;5.13;2.90;;;;;;;25.54;43.04;98035.16;15271107;19;20431;-46
2023/07/04 15:17:52;;;;;;;3.53;2.88;;;;;;;25.79;42.51;98041.03;15270989;19;20014;-45
2023/07/04 15:23:17;;;;;;;3.58;2.45;;;;;;;25.85;42.49;98027.00;15272025;19;20018;-47
2023/07/04 15:28:44;;;;;;;2.80;2.50;;;;;;;25.18;44.23;98031.34;15273017;19;20187;-46
2023/07/04 15:34:10;;;;;;;2.90;2.60;;;;;;;24.64;44.59;98035.09;15273714;19;20014;-49
2023/07/04 15:39:35;;;;;;;4.22;2.80;;;;;;;24.33;44.79;98037.56;15275768;19;20024;-49
2023/07/04 15:45:10;;;;;;;2.90;2.30;;;;;;;24.74;46.04;98033.25;15268938;19;20023;-50
2023/07/04 15:50:36;;;;;;;4.35;2.53;;;;;;;25.16;45.46;98056.41;15272826;19;20013;-49
2023/07/04 15:56:01;;;;;;;4.05;2.30;;;;;;;25.23;45.45;98021.16;15270075;19;20086;-48
2023/07/04 16:01:28;;;;;;;3.60;2.45;;;;;;;25.46;45.17;98016.34;15272755;19;20416;-46
2023/07/04 16:06:55;;;;;;;3.40;2.50;;;;;;;25.40;44.54;98022.91;15273867;19;20018;-46
2023/07/04 16:12:21;;;;;;;3.15;2.30;;;;;;;25.45;43.47;98014.72;15270909;19;20567;-45
2023/07/04 16:17:49;;;;;;;2.90;2.53;;;;;;;25.53;44.43;98014.19;15267642;19;20041;-45
2023/07/04 16:23:14;;;;;;;2.70;2.40;;;;;;;25.38;44.41;98011.31;15265700;19;20018;-46
2023/07/04 16:28:40;;;;;;;6.03;2.33;;;;;;;25.16;45.31;98019.78;15267047;19;20022;-48
2023/07/04 16:34:07;;;;;;;2.70;2.45;;;;;;;24.99;44.64;98012.50;15265711;19;20010;-46
2023/07/04 16:39:32;;;;;;;4.03;2.40;;;;;;;25.07;44.77;98013.94;15270400;19;20010;-47
2023/07/04 16:45:03;;;;;;;4.38;2.50;;;;;;;25.19;45.20;98005.44;15264829;19;20031;-45
2023/07/04 16:50:31;;;;;;;3.17;2.17;;;;;;;25.23;44.03;98023.91;15260931;19;20476;-45
2023/07/04 16:56:02;;;;;;;2.95;2.15;;;;;;;25.01;44.35;98004.78;15264191;19;20093;-45
2023/07/04 17:01:27;;;;;;;2.77;2.23;;;;;;;24.85;44.39;98011.28;15268913;19;20022;-45
2023/07/04 17:06:54;;;;;;;3.10;2.45;;;;;;;24.88;45.02;98006.06;15261568;19;20094;-45
2023/07/04 17:12:19;;;;;;;5.53;2.40;;;;;;;24.93;46.24;98008.88;15268484;19;20017;-46
2023/07/04 17:17:43;;;;;;;3.40;2.47;;;;;;;24.72;45.00;98015.34;15267938;19;20014;-45
2023/07/04 17:23:11;;;;;;;3.00;2.40;;;;;;;24.67;46.00;98018.00;15260997;19;20021;-45
2023/07/04 17:28:36;;;;;;;4.47;2.47;;;;;;;24.50;45.57;98018.16;15265479;19;20073;-45
2023/07/04 17:34:02;;;;;;;3.60;2.20;;;;;;;24.44;46.46;98017.28;15268040;19;20020;-46
2023/07/04 17:39:30;;;;;;;3.88;2.28;;;;;;;24.32;46.73;98022.97;15269478;19;20022;-45
2023/07/04 17:45:01;;;;;;;3.95;2.55;;;;;;;24.14;46.83;98038.75;15264766;19;20078;-46
2023/07/04 17:50:27;;;;;;;;;;;;;;;24.08;48.17;98038.94;15281896;19;20022;-46
2023/07/04 17:55:54;;;;;;;3.53;2.53;;;;;;;24.03;48.04;98038.91;15275792;19;19914;-45
2023/07/04 18:01:22;;;;;;;3.55;2.30;;;;;;;23.91;47.76;98037.09;15281538;19;20006;-45
2023/07/04 18:06:46;;;;;;;6.75;2.40;;;;;;;23.83;49.01;98046.66;15274919;19;20021;-43
2023/07/04 18:12:14;;;;;;;2.80;2.40;;;;;;;23.75;49.02;98049.00;15277705;19;20018;-45
2023/07/04 18:17:39;;;;;;;3.60;2.50;;;;;;;23.52;48.96;98056.44;15275217;19;20014;-47
2023/07/04 18:23:04;;;;;;;3.03;2.40;;;;;;;23.28;48.95;98051.16;15273943;19;20033;-44
2023/07/04 18:28:32;;;;;;;3.67;2.35;;;;;;;23.05;49.42;98052.19;15276029;19;20039;-45
2023/07/04 18:34:02;;;;;;;4.50;2.50;;;;;;;22.73;49.68;98059.13;15277010;19;20021;-46
2023/07/04 18:39:28;;;;;;;3.90;2.47;;;;;;;22.54;49.87;98050.28;15276355;19;20407;-46
2023/07/04 18:45:02;;;;;;;4.35;2.33;;;;;;;22.49;51.49;98060.34;15272249;19;20019;-44
2023/07/04 18:50:29;;;;;;;3.67;2.63;;;;;;;22.39;52.40;98066.44;15279622;19;20039;-44
2023/07/04 18:55:53;;;;;;;3.60;2.28;;;;;;;22.31;54.00;98081.41;15271773;19;20034;-48
2023/07/04 19:01:24;;;;;;;3.08;2.20;;;;;;;22.09;56.82;98078.53;15276409;19;20073;-48
2023/07/04 19:06:48;;;;;;;3.90;2.53;;;;;;;21.94;56.26;98082.63;15275905;19;20011;-45
2023/07/04 19:12:13;;;;;;;2.72;2.20;;;;;;;21.76;56.11;98078.16;15273765;19;20118;-44
2023/07/04 19:17:40;;;;;;;4.07;2.33;;;;;;;21.61;55.45;98083.31;15273384;19;20035;-48
2023/07/04 19:23:05;;;;;;;3.08;2.58;;;;;;;21.46;54.94;98087.34;15269379;19;20022;-45
2023/07/04 19:28:30;;;;;;;4.10;2.50;;;;;;;21.35;56.27;98102.75;15258248;19;20324;-48
2023/07/04 19:33:58;;;;;;;4.55;2.42;;;;;;;21.05;61.43;98105.59;15263680;19;20025;-45
2023/07/04 19:39:24;;;;;;;3.55;2.58;;;;;;;20.84;64.47;98102.38;15262048;19;20027;-47
2023/07/04 19:44:55;;;;;;;5.80;2.50;;;;;;;20.60;68.66;98107.78;15228640;19;20020;-49
2023/07/04 19:50:22;;;;;;;3.10;2.60;;;;;;;20.40;68.12;98112.72;15264281;19;20021;-54
2023/07/04 19:55:47;;;;;;;3.22;2.78;;;;;;;20.21;68.63;98115.50;15238142;19;20019;-53
2023/07/04 20:01:13;;;;;;;5.50;2.80;;;;;;;20.05;70.28;98111.50;15257806;19;20507;-54
2023/07/04 20:06:45;;;;;;;3.55;2.50;;;;;;;19.94;71.18;98115.84;15266314;19;20025;-51
2023/07/04 20:12:11;;;;;;;3.67;2.80;;;;;;;19.76;72.38;98121.28;15266389;19;20010;-55
2023/07/04 20:17:36;;;;;;;3.35;2.42;;;;;;;19.60;72.63;98109.09;15272036;19;20021;-48
2023/07/04 20:23:04;;;;;;;3.63;2.60;;;;;;;19.48;74.19;98106.25;15265374;19;20757;-50
2023/07/04 20:28:31;;;;;;;3.55;2.70;;;;;;;19.35;75.62;98107.25;15271187;19;20348;-51
2023/07/04 20:33:56;;;;;;;7.70;2.50;;;;;;;19.17;84.42;98099.84;15262529;19;20011;-52
2023/07/04 20:39:23;;;;;;;5.22;2.83;;;;;;;18.94;88.67;98099.41;15270301;19;20007;-54
2023/07/04 20:44:55;;;;;;;3.05;2.50;;;;;;;18.74;91.77;98099.59;15263516;19;20015;-52
2023/07/04 20:50:27;;;;;;;4.80;2.83;;;;;;;18.62;93.22;98098.63;15269235;19;20007;-53
2023/07/04 20:55:54;;;;;;;5.78;2.67;;;;;;;18.52;95.25;98087.38;15268019;19;20015;-54
2023/07/04 21:01:19;;;;;;;3.65;2.90;;;;;;;18.40;95.54;98082.63;15268776;19;20082;-52
2023/07/04 21:06:46;;;;;;;4.15;2.70;;;;;;;18.24;99.26;98083.16;15262326;19;20094;-52
2023/07/04 21:12:15;;;;;;;4.22;2.80;;;;;;;18.14;99.06;98076.28;15265474;19;20006;-53
2023/07/04 21:17:40;;;;;;;3.70;3.08;;;;;;;17.95;100.00;98072.59;15267873;19;20077;-52
2023/07/04 21:23:04;;;;;;;6.47;3.10;;;;;;;17.85;100.00;98083.13;15270405;19;20082;-50
2023/07/04 21:28:32;;;;;;;4.35;3.20;;;;;;;17.72;100.00;98067.66;15284432;19;20086;-52
2023/07/04 21:33:57;;;;;;;4.05;3.22;;;;;;;17.54;100.00;98071.94;15275510;19;20073;-53
2023/07/04 21:39:22;;;;;;;3.40;3.10;;;;;;;17.40;100.00;98065.66;15281738;19;20034;-47
2023/07/04 21:44:51;;;;;;;4.95;3.28;;;;;;;17.23;100.00;98070.75;15275180;19;20102;-47
2023/07/04 21:50:22;;;;;;;5.07;3.25;;;;;;;17.10;100.00;98066.19;15283917;19;20022;-51
2023/07/04 21:55:48;;;;;;;4.15;3.03;;;;;;;17.06;100.00;98066.81;15281327;19;20021;-51
2023/07/04 22:01:17;;;;;;;5.03;3.22;;;;;;;16.98;100.00;98069.78;15282874;19;20039;-54
2023/07/04 22:06:43;;;;;;;5.63;3.70;;;;;;;16.93;100.00;98065.75;15281171;19;20094;-51
2023/07/04 22:12:07;;;;;;;7.50;3.75;;;;;;;16.90;100.00;98066.16;15276455;19;20090;-48
2023/07/04 22:17:34;;;;;;;7.15;3.78;;;;;;;16.87;100.00;98069.34;15281354;19;20463;-47
2023/07/04 22:22:59;;;;;;;6.47;3.60;;;;;;;16.84;100.00;98068.91;15275013;19;20025;-51
2023/07/04 22:28:24;;;;;;;5.05;3.10;;;;;;;16.80;100.00;98065.75;15281909;19;20073;-52
2023/07/04 22:33:55;;;;;;;5.38;3.53;;;;;;;16.74;100.00;98051.13;15269771;19;20105;-50
2023/07/04 22:39:20;;;;;;;7.00;3.28;;;;;;;16.70;100.00;98054.47;15281197;19;20471;-49
2023/07/04 22:44:44;;;;;;;5.15;3.40;;;;;;;16.64;100.00;98051.53;15269429;19;20025;-46
2023/07/04 22:50:12;;;;;;;4.88;3.75;;;;;;;16.63;100.00;98044.44;15280569;19;20021;-50
2023/07/04 22:55:37;;;;;;;5.07;3.17;;;;;;;16.60;100.00;98035.84;15277085;19;20014;-48
2023/07/04 23:01:09;;;;;;;3.22;2.92;;;;;;;16.54;100.00;98040.25;15278553;19;20021;-53
2023/07/04 23:06:37;;;;;;;5.10;3.22;;;;;;;16.46;100.00;98026.88;15277090;19;20600;-52
2023/07/04 23:12:03;;;;;;;5.22;3.33;;;;;;;16.41;100.00;98013.03;15273127;19;20014;-50
2023/07/04 23:17:27;;;;;;;6.38;3.33;;;;;;;16.37;100.00;98015.34;15274323;19;20011;-54
2023/07/04 23:22:55;;;;;;;3.92;3.20;;;;;;;16.31;100.00;98008.88;15273446;19;20014;-52
2023/07/04 23:28:20;;;;;;;5.30;3.55;;;;;;;16.27;100.00;98001.34;15282027;19;20021;-55
2023/07/04 23:33:47;;;;;;;5.35;3.55;;;;;;;16.20;100.00;97985.03;15271054;19;20021;-52
2023/07/04 23:39:16;;;;;;;3.83;3.38;;;;;;;16.15;100.00;97993.81;15277622;19;20034;-55
2023/07/04 23:44:41;;;;;;;6.13;3.30;;;;;;;16.09;100.00;97977.50;15266389;19;20023;-51
2023/07/04 23:50:05;;;;;;;3.88;3.50;;;;;;;16.01;100.00;97965.81;15274236;19;20014;-52
2023/07/04 23:55:32;;;;;;;4.40;3.25;;;;;;;15.99;100.00;97967.88;15272930;19;20489;-55
